Flugplatz Laupheim Airport

Bericht für ETHL

vom 25.09. um 18:20 UTC

Wind 10 kt aus 220°

Sichtweite 8000 m

Temperatur 6.0°C

Taupunkt 5.0°C

Luftfeuchtigkeit 93%

Luftdruck 1001 hPa

ETHL 251820Z AUTO 22010KT 8000 // ////// 06/05 Q1001 ///
Keine Prognose (TAF) verfügbar.
Impressum